Time;durP1;ratioP1;P1;durP2;ratioP2;P2;SDS_P1;SDS_P2;PMS_P1;PMS_P2;Temp;Humidity;BMP_temperature;BMP_pressure;BME280_temperature;BME280_humidity;BME280_pressure;Samples;Min_cycle;Max_cycle;Signal;HPM_P1;HPM_P2
2023/02/13 00:00:13;;;;;;;34.15;21.58;;;;;;;-146.25;100.00;52542.56;2080542;28;39770;-76
2023/02/13 00:01:16;;;;;;;36.17;21.67;;;;;;;-146.25;100.00;52455.38;2080488;28;20046;-76
2023/02/13 00:02:18;;;;;;;34.50;20.85;;;;;;;-146.25;100.00;52465.53;2079839;28;38583;-76
2023/02/13 00:03:20;;;;;;;36.20;20.58;;;;;;;-146.25;100.00;52477.69;2088409;28;33168;-76
2023/02/13 00:04:22;;;;;;;32.92;20.17;;;;;;;-146.25;100.00;52500.00;2088871;28;36314;-76
2023/02/13 00:05:23;;;;;;;32.95;20.13;;;;;;;-146.25;100.00;52461.47;2089006;28;38174;-76
2023/02/13 00:06:25;;;;;;;34.80;21.25;;;;;;;-146.25;100.00;52453.34;2089618;28;20038;-76
2023/02/13 00:07:28;;;;;;;32.67;19.95;;;;;;;-146.25;100.00;52475.66;2079954;28;41371;-77
2023/02/13 00:08:30;;;;;;;32.15;19.77;;;;;;;-146.25;100.00;52465.53;2080346;28;39211;-75
2023/02/13 00:09:32;;;;;;;35.03;20.15;;;;;;;-146.25;100.00;52485.81;2088818;28;38725;-76
2023/02/13 00:10:33;;;;;;;31.63;20.38;;;;;;;-146.25;100.00;52491.88;2088774;28;41121;-78
2023/02/13 00:11:36;;;;;;;37.92;21.98;;;;;;;-146.25;100.00;52481.75;2094428;28;20040;-76
2023/02/13 00:12:38;;;;;;;35.45;21.88;;;;;;;-146.25;100.00;52449.31;2087943;28;36422;-77
2023/02/13 00:13:40;;;;;;;34.95;22.05;;;;;;;-146.25;100.00;52455.38;2088544;28;38479;-76
2023/02/13 00:14:42;;;;;;;39.67;22.85;;;;;;;-146.25;100.00;52510.13;2097224;28;37590;-76
2023/02/13 00:15:53;;;;;;;31.80;19.90;;;;;;;-146.25;100.00;52485.81;2088400;28;40529;-76
2023/02/13 00:16:57;;;;;;;35.83;21.63;;;;;;;-146.25;100.00;52485.81;2089999;28;39611;-75
2023/02/13 00:17:59;;;;;;;42.70;23.50;;;;;;;-146.25;100.00;52477.69;2097155;28;37655;-76
2023/02/13 00:19:00;;;;;;;35.28;21.33;;;;;;;-146.25;100.00;52445.25;2097448;28;39375;-76
2023/02/13 00:20:04;;;;;;;40.25;22.60;;;;;;;-146.25;100.00;52451.31;2098003;28;20111;-76
2023/02/13 00:21:12;;;;;;;38.05;22.33;;;;;;;-146.25;100.00;52497.97;2097192;28;39489;-76
2023/02/13 00:22:15;;;;;;;39.75;22.20;;;;;;;-146.25;100.00;52481.75;2097170;28;39144;-76
2023/02/13 00:23:17;;;;;;;36.75;21.13;;;;;;;-146.25;100.00;52493.91;2096907;28;36843;-75
2023/02/13 00:24:18;;;;;;;36.13;22.08;;;;;;;-146.25;100.00;52477.69;2096874;28;40837;-76
2023/02/13 00:25:20;;;;;;;42.85;21.35;;;;;;;-146.25;100.00;52495.94;2097663;28;20863;-75
2023/02/13 00:26:22;;;;;;;34.85;21.60;;;;;;;-146.25;100.00;52497.97;2096536;28;39090;-75
2023/02/13 00:27:24;;;;;;;41.70;22.75;;;;;;;-146.25;100.00;52441.19;2098081;28;20146;-74
2023/02/13 00:28:26;;;;;;;34.97;22.40;;;;;;;-146.25;100.00;52475.66;2097167;28;36112;-77
2023/02/13 00:29:28;;;;;;;36.20;21.52;;;;;;;-146.25;100.00;52431.06;2079941;28;35778;-76
2023/02/13 00:30:29;;;;;;;36.08;22.52;;;;;;;-146.25;100.00;52481.75;2080272;28;32822;-75
2023/02/13 00:31:31;;;;;;;34.70;20.83;;;;;;;-146.25;100.00;52475.66;2097670;28;20933;-75
2023/02/13 00:32:33;;;;;;;33.92;20.15;;;;;;;-146.25;100.00;52475.66;2097535;28;29677;-76
2023/02/13 00:33:35;;;;;;;32.35;19.48;;;;;;;-146.25;100.00;52491.88;2088483;28;34783;-76
2023/02/13 00:34:37;;;;;;;35.75;22.35;;;;;;;-146.25;100.00;52441.19;2087858;28;40151;-76
2023/02/13 00:35:41;;;;;;;34.42;20.98;;;;;;;-146.25;100.00;52441.19;2097160;28;33487;-77
2023/02/13 00:36:43;;;;;;;33.03;20.45;;;;;;;-146.25;100.00;52457.41;2088821;28;20095;-76
2023/02/13 00:37:45;;;;;;;37.45;22.33;;;;;;;-146.25;100.00;52445.25;2088238;28;31636;-76
2023/02/13 00:38:47;;;;;;;36.50;23.20;;;;;;;-146.25;100.00;52461.47;2080493;28;20038;-76
2023/02/13 00:39:49;;;;;;;37.20;22.38;;;;;;;-146.25;100.00;52445.25;2080325;28;34124;-76
2023/02/13 00:40:52;;;;;;;36.90;20.23;;;;;;;-146.25;100.00;52433.06;2088773;28;20042;-76
2023/02/13 00:41:54;;;;;;;33.67;21.63;;;;;;;-146.25;100.00;52465.53;2097465;28;31861;-76
2023/02/13 00:42:55;;;;;;;35.85;20.10;;;;;;;-146.25;100.00;52487.81;2097278;28;31236;-77
2023/02/13 00:43:59;;;;;;;34.47;20.33;;;;;;;-146.25;100.00;52433.06;2097742;28;20147;-76
2023/02/13 00:45:04;;;;;;;32.90;19.45;;;;;;;-146.25;100.00;52473.63;2088474;28;20054;-76
2023/02/13 00:46:05;;;;;;;32.80;21.13;;;;;;;-146.25;100.00;52467.56;2088314;28;37497;-77
2023/02/13 00:47:07;;;;;;;35.75;22.08;;;;;;;-146.25;100.00;52463.50;2096829;28;31370;-76
2023/02/13 00:48:09;;;;;;;35.38;20.20;;;;;;;-146.25;100.00;52469.56;2097224;28;36226;-75
2023/02/13 00:49:10;;;;;;;37.38;22.02;;;;;;;-146.25;100.00;52485.81;2097092;28;31659;-76
2023/02/13 00:50:12;;;;;;;38.88;23.92;;;;;;;-146.25;100.00;52475.66;2088439;28;24032;-77
2023/02/13 00:51:14;;;;;;;40.15;23.60;;;;;;;-146.25;100.00;52459.44;2071750;28;34554;-76
2023/02/13 00:52:16;;;;;;;38.10;23.48;;;;;;;-146.25;100.00;52485.81;2072314;28;28596;-76
2023/02/13 00:53:22;;;;;;;34.90;21.00;;;;;;;-146.25;100.00;52445.25;2087972;28;33120;-76
2023/02/13 00:54:26;;;;;;;32.78;20.70;;;;;;;-146.25;100.00;52475.66;2088371;28;37301;-76
2023/02/13 00:55:28;;;;;;;36.72;21.92;;;;;;;-146.25;100.00;52497.97;2088789;28;26679;-76
2023/02/13 00:56:29;;;;;;;35.35;21.13;;;;;;;-146.25;100.00;52420.91;2087734;28;38551;-76
2023/02/13 00:57:31;;;;;;;33.30;19.50;;;;;;;-146.25;100.00;52455.38;2071530;28;33533;-77
2023/02/13 00:58:33;;;;;;;39.35;21.08;;;;;;;-146.25;100.00;52451.31;2080716;28;24845;-76
2023/02/13 00:59:35;;;;;;;33.70;20.33;;;;;;;-146.25;100.00;52449.31;2097144;28;30010;-75
2023/02/13 01:00:40;;;;;;;35.65;22.00;;;;;;;-146.25;100.00;52489.84;2097985;28;20092;-76
2023/02/13 01:01:43;;;;;;;35.33;21.92;;;;;;;-146.25;100.00;52475.66;2088015;28;25876;-75
2023/02/13 01:02:44;;;;;;;37.10;21.85;;;;;;;-146.25;100.00;52489.84;2080222;28;29887;-77
2023/02/13 01:03:46;;;;;;;40.15;22.65;;;;;;;-146.25;100.00;52453.34;2088074;28;41523;-75
2023/02/13 01:04:48;;;;;;;38.58;21.65;;;;;;;-146.25;100.00;52469.56;2087912;28;32877;-76
2023/02/13 01:05:51;;;;;;;36.33;21.90;;;;;;;-146.25;100.00;52471.59;2088513;28;20045;-77
2023/02/13 01:06:53;;;;;;;38.08;22.83;;;;;;;-146.25;100.00;52502.03;2097181;28;34576;-76
2023/02/13 01:07:57;;;;;;;34.88;21.58;;;;;;;-146.25;100.00;52465.53;2096937;28;34017;-75
2023/02/13 01:08:59;;;;;;;37.15;22.63;;;;;;;-146.25;100.00;52489.84;2097125;28;29658;-76
2023/02/13 01:10:01;;;;;;;43.47;23.75;;;;;;;-146.25;100.00;52479.72;2087821;28;33368;-76
2023/02/13 01:11:02;;;;;;;39.03;22.35;;;;;;;-146.25;100.00;52441.19;2087931;28;30953;-76
2023/02/13 01:12:04;;;;;;;35.17;21.00;;;;;;;-146.25;100.00;52441.19;2087754;28;43195;-76
2023/02/13 01:13:09;;;;;;;39.20;22.98;;;;;;;-146.25;100.00;52477.69;2080047;28;20050;-76
2023/02/13 01:14:10;;;;;;;38.95;22.77;;;;;;;-146.25;100.00;52475.66;2080248;28;30947;-76
2023/02/13 01:15:13;;;;;;;37.50;23.20;;;;;;;-146.25;100.00;52445.25;2088927;28;20915;-77
2023/02/13 01:16:16;;;;;;;39.40;23.00;;;;;;;-146.25;100.00;52477.69;2088345;28;20049;-76
2023/02/13 01:17:20;;;;;;;36.10;21.63;;;;;;;-146.25;100.00;52439.16;2080780;28;20035;-76
2023/02/13 01:18:22;;;;;;;34.13;21.98;;;;;;;-146.25;100.00;52516.22;2080145;28;35557;-75
2023/02/13 01:19:24;;;;;;;39.40;22.92;;;;;;;-146.25;100.00;52493.91;2087844;28;29226;-76
2023/02/13 01:20:28;;;;;;;35.85;22.45;;;;;;;-146.25;100.00;52477.69;2080123;28;22817;-76
2023/02/13 01:21:29;;;;;;;40.53;23.77;;;;;;;-146.25;100.00;52487.81;2080916;28;21029;-76
2023/02/13 01:22:31;;;;;;;43.83;24.67;;;;;;;-146.25;100.00;52506.06;2088111;28;38239;-75
2023/02/13 01:23:37;;;;;;;40.38;22.95;;;;;;;-146.25;100.00;52465.53;2088018;28;35492;-76
2023/02/13 01:24:38;;;;;;;35.28;20.42;;;;;;;-146.25;100.00;52469.56;2079622;28;20053;-76
2023/02/13 01:25:41;;;;;;;42.13;22.00;;;;;;;-146.25;100.00;52483.78;2071910;28;32873;-78
2023/02/13 01:26:46;;;;;;;40.63;22.48;;;;;;;-146.25;100.00;52495.94;2079150;28;34350;-78
2023/02/13 01:27:49;;;;;;;44.53;24.02;;;;;;;-146.25;100.00;52491.88;2088884;28;27912;-75
2023/02/13 01:28:53;;;;;;;38.78;22.70;;;;;;;-146.25;100.00;52485.81;2080138;28;20038;-75
2023/02/13 01:29:55;;;;;;;38.67;21.55;;;;;;;-146.25;100.00;52522.28;2072754;28;20113;-76
2023/02/13 01:30:58;;;;;;;35.03;20.95;;;;;;;-146.25;100.00;52439.16;2080632;28;20849;-76
2023/02/13 01:32:02;;;;;;;31.70;19.60;;;;;;;-146.25;100.00;52469.56;2079687;28;32346;-76
2023/02/13 01:33:04;;;;;;;39.58;22.35;;;;;;;-146.25;100.00;52477.69;2072141;28;20132;-76
2023/02/13 01:34:11;;;;;;;36.92;21.40;;;;;;;-146.25;100.00;52487.81;2072038;28;20852;-76
2023/02/13 01:35:15;;;;;;;42.88;22.52;;;;;;;-146.25;100.00;52465.53;2081058;28;20045;-76
2023/02/13 01:36:16;;;;;;;42.00;22.60;;;;;;;-146.25;100.00;52493.91;2087643;28;40339;-76
2023/02/13 01:37:18;;;;;;;46.80;22.73;;;;;;;-146.25;100.00;52473.63;2087369;28;35490;-76
2023/02/13 01:38:20;;;;;;;41.72;24.63;;;;;;;-146.25;100.00;52479.72;2089304;28;20134;-75
2023/02/13 01:39:22;;;;;;;43.83;22.63;;;;;;;-146.25;100.00;52453.34;2087684;28;27589;-75
2023/02/13 01:40:28;;;;;;;42.55;22.67;;;;;;;-146.25;100.00;52467.56;2087919;28;20040;-78
2023/02/13 01:41:30;;;;;;;34.85;20.30;;;;;;;-146.25;100.00;52502.03;2092556;28;20052;-76
2023/02/13 01:42:34;;;;;;;41.85;23.42;;;;;;;-146.25;100.00;52471.59;2096834;28;20044;-75
2023/02/13 01:43:46;;;;;;;43.40;22.85;;;;;;;-146.25;100.00;52500.00;2087666;28;29102;-76
2023/02/13 01:44:56;;;;;;;40.45;21.63;;;;;;;-146.25;100.00;52483.78;2080769;28;38172;-76
2023/02/13 01:46:00;;;;;;;40.72;23.38;;;;;;;-146.25;100.00;52471.59;2081854;28;20176;-74
2023/02/13 01:47:02;;;;;;;39.13;23.25;;;;;;;-146.25;100.00;52439.16;2079909;28;31752;-76
2023/02/13 01:48:26;;;;;;;47.22;24.98;;;;;;;-146.25;100.00;52437.13;2079494;28;20821;-75
2023/02/13 01:49:27;;;;;;;40.00;22.20;;;;;;;-146.25;100.00;52497.97;2086293;28;33267;-76
2023/02/13 01:50:49;;;;;;;45.17;23.83;;;;;;;-146.25;100.00;52493.91;2096716;28;38778;-75
2023/02/13 01:51:54;;;;;;;40.67;22.42;;;;;;;-146.25;100.00;52506.06;2080620;28;20053;-76
2023/02/13 01:53:15;;;;;;;39.90;22.15;;;;;;;-146.25;100.00;52479.72;2074307;28;20120;-76
2023/02/13 01:54:29;;;;;;;35.38;20.90;;;;;;;-146.25;100.00;52477.69;2091491;28;27035;-76
2023/02/13 01:55:41;;;;;;;41.70;22.33;;;;;;;-146.25;100.00;52489.84;2079726;28;20093;-76
2023/02/13 01:56:59;;;;;;;38.45;22.77;;;;;;;-146.25;100.00;52471.59;2083590;28;34979;-76
2023/02/13 01:58:10;;;;;;;41.42;23.13;;;;;;;-146.25;100.00;52506.06;2080077;28;20049;-76
2023/02/13 01:59:18;;;;;;;39.72;22.42;;;;;;;-146.25;100.00;52477.69;2075223;28;24137;-76
2023/02/13 02:00:23;;;;;;;40.45;22.02;;;;;;;-146.25;100.00;52457.41;2074736;28;20854;-76
2023/02/13 02:01:27;;;;;;;37.95;23.02;;;;;;;-146.25;100.00;52457.41;2079889;28;39515;-76
2023/02/13 02:02:35;;;;;;;35.65;20.75;;;;;;;-146.25;100.00;52465.53;2080377;28;20634;-76
2023/02/13 02:03:47;;;;;;;31.13;19.90;;;;;;;-146.25;100.00;52467.56;2072837;28;30000;-76
2023/02/13 02:04:49;;;;;;;33.78;20.05;;;;;;;-146.25;100.00;52469.56;2067213;28;20184;-76
2023/02/13 02:05:56;;;;;;;40.50;22.95;;;;;;;-146.25;100.00;52473.63;2081831;28;20072;-76
2023/02/13 02:07:09;;;;;;;37.08;21.90;;;;;;;-146.25;100.00;52502.03;2087956;28;20041;-76
2023/02/13 02:08:14;;;;;;;39.60;22.38;;;;;;;-146.25;100.00;52469.56;2082158;28;20034;-76
2023/02/13 02:09:21;;;;;;;38.78;22.17;;;;;;;-146.25;100.00;52475.66;2089831;28;20965;-76
2023/02/13 02:10:23;;;;;;;36.00;22.10;;;;;;;-146.25;100.00;52489.84;2079815;28;20084;-76
2023/02/13 02:11:39;;;;;;;38.22;21.95;;;;;;;-146.25;100.00;52445.25;2079370;28;20153;-76
2023/02/13 02:12:57;;;;;;;39.88;22.00;;;;;;;-146.25;100.00;52459.44;2080298;28;20042;-76
2023/02/13 02:14:01;;;;;;;39.05;22.98;;;;;;;-146.25;100.00;52481.75;2076419;28;20054;-76
2023/02/13 02:15:08;;;;;;;40.85;22.10;;;;;;;-146.25;100.00;52453.34;2064120;28;21017;-76
2023/02/13 02:16:11;;;;;;;38.88;22.63;;;;;;;-146.25;100.00;52455.38;2065354;28;20174;-75
2023/02/13 02:17:13;;;;;;;41.65;22.25;;;;;;;-146.25;100.00;52443.22;2071023;28;33116;-76
2023/02/13 02:18:23;;;;;;;38.22;21.35;;;;;;;-146.25;100.00;52483.78;2063539;28;20081;-76
2023/02/13 02:19:46;;;;;;;;;;;;;;;-146.25;100.00;52489.84;2074869;28;20049;-76
2023/02/13 02:21:39;;;;;;;38.33;19.25;;;;;;;-146.25;100.00;52465.53;2071342;28;19929;-76
2023/02/13 02:23:01;;;;;;;32.53;18.60;;;;;;;-146.25;100.00;52465.53;2041265;28;20048;-75
2023/02/13 02:24:43;;;;;;;31.08;17.88;;;;;;;-146.25;100.00;52433.06;2082379;28;30176;-76
2023/02/13 02:26:00;;;;;;;36.58;20.75;;;;;;;-146.25;100.00;52431.06;2088620;28;20038;-76
2023/02/13 02:27:42;;;;;;;39.25;22.92;;;;;;;-146.25;100.00;52420.91;2079453;28;20046;-76
2023/02/13 02:29:24;;;;;;;34.00;19.90;;;;;;;-146.25;100.00;52518.25;2077370;28;20037;-76
2023/02/13 02:30:37;;;;;;;35.50;18.88;;;;;;;-146.25;100.00;52453.34;2076157;28;31553;-76
2023/02/13 02:32:13;;;;;;;30.75;18.13;;;;;;;-146.25;100.00;52516.22;2087034;28;20077;-76
2023/02/13 02:33:29;;;;;;;34.95;19.80;;;;;;;-146.25;100.00;52465.53;2079701;28;20795;-76
2023/02/13 02:34:57;;;;;;;34.28;19.60;;;;;;;-146.25;100.00;52433.06;2079833;28;20969;-76
2023/02/13 02:36:16;;;;;;;35.13;21.40;;;;;;;-146.25;100.00;52441.19;2082743;28;20053;-76
2023/02/13 02:37:57;;;;;;;33.25;19.73;;;;;;;-146.25;100.00;52467.56;2079687;28;21121;-76
2023/02/13 02:39:25;;;;;;;36.13;20.92;;;;;;;-146.25;100.00;52465.53;2077203;28;20038;-76
2023/02/13 02:40:40;;;;;;;35.13;20.15;;;;;;;-146.25;100.00;52457.41;2075274;28;20045;-76
2023/02/13 02:42:18;;;;;;;33.97;20.65;;;;;;;-146.25;100.00;52491.88;2086060;28;20034;-76
2023/02/13 02:43:54;;;;;;;35.97;20.40;;;;;;;-146.25;100.00;52493.91;2080036;28;20061;-76
2023/02/13 02:45:09;;;;;;;30.17;19.02;;;;;;;-146.25;100.00;52479.72;2076393;28;20215;-76
2023/02/13 02:46:20;;;;;;;37.92;19.70;;;;;;;-146.25;100.00;52461.47;2073079;28;20130;-75
2023/02/13 02:50:55;;;;;;;34.88;20.08;;;;;;;-146.25;100.00;52518.25;2071282;28;20035;-76
2023/02/13 02:52:14;;;;;;;37.33;20.10;;;;;;;-146.25;100.00;52493.91;2070586;28;20042;-76
2023/02/13 02:53:46;;;;;;;33.35;19.35;;;;;;;-146.25;100.00;52475.66;2075781;28;26148;-76
2023/02/13 02:55:08;;;;;;;33.33;18.35;;;;;;;-146.25;100.00;52471.59;2074278;28;20088;-76
2023/02/13 02:56:42;;;;;;;39.17;21.17;;;;;;;-146.25;100.00;52463.50;2067594;28;20082;-76
2023/02/13 03:06:58;;;;;;;39.60;23.48;;;;;;;-146.25;100.00;52510.13;2089318;28;36369;-76
2023/02/13 03:08:03;;;;;;;40.38;23.30;;;;;;;-146.25;100.00;52481.75;2093154;28;43271;-76
2023/02/13 03:13:46;;;;;;;32.72;20.52;;;;;;;-146.25;100.00;52489.84;2092554;28;34578;-76
2023/02/13 03:14:48;;;;;;;35.55;21.17;;;;;;;-146.25;100.00;52502.03;2096299;28;43379;-76
2023/02/13 03:22:58;;;;;;;38.65;22.13;;;;;;;-146.25;100.00;52485.81;2086811;28;38287;-75
2023/02/13 03:24:14;;;;;;;36.78;22.10;;;;;;;-146.25;100.00;52467.56;2070652;28;25671;-75
2023/02/13 03:25:34;;;;;;;35.05;21.33;;;;;;;-146.25;100.00;52502.03;2070203;28;43614;-75
2023/02/13 03:30:05;;;;;;;32.95;20.98;;;;;;;-146.25;100.00;52445.25;2070149;28;38411;-75
2023/02/13 03:30:50;;;;;;;45.05;24.83;;;;;;;-146.25;100.00;52481.75;2079108;28;41368;-76
2023/02/13 03:32:00;;;;;;;47.38;25.45;;;;;;;-146.25;100.00;52493.91;2078370;28;41540;-75
2023/02/13 03:33:21;;;;;;;46.65;26.10;;;;;;;-146.25;100.00;52471.59;2083978;28;37067;-76
2023/02/13 03:34:24;;;;;;;43.85;25.00;;;;;;;-146.25;100.00;52489.84;2078716;28;41351;-75
2023/02/13 03:38:55;;;;;;;39.72;22.05;;;;;;;-146.25;100.00;52493.91;2078817;28;40078;-76
2023/02/13 03:40:11;;;;;;;37.25;21.88;;;;;;;-146.25;100.00;52489.84;2085632;28;43840;-76
2023/02/13 03:41:35;;;;;;;44.15;25.05;;;;;;;-146.25;100.00;52504.03;2087673;28;27656;-77
2023/02/13 03:43:00;;;;;;;39.75;21.75;;;;;;;-146.25;100.00;52504.03;2078822;28;20169;-76
2023/02/13 03:44:29;;;;;;;33.33;19.83;;;;;;;-146.25;100.00;52473.63;2075903;28;41490;-76
2023/02/13 03:45:53;;;;;;;36.28;21.00;;;;;;;-146.25;100.00;52473.63;2083380;28;42034;-75
2023/02/13 03:46:59;;;;;;;41.47;24.15;;;;;;;-146.25;100.00;52526.34;2078642;28;39864;-76
2023/02/13 03:50:04;;;;;;;44.10;25.15;;;;;;;-146.25;100.00;52500.00;2066132;28;40869;-75
2023/02/13 03:50:06;;;;;;;42.75;23.05;;;;;;;-146.25;100.00;52485.81;2072241;28;20050;-77
2023/02/13 03:51:13;;;;;;;40.05;22.77;;;;;;;-146.25;100.00;52469.56;2077770;28;40857;-75
2023/02/13 03:52:25;;;;;;;41.28;23.40;;;;;;;-146.25;100.00;52453.34;2084291;28;35424;-75
2023/02/13 03:53:32;;;;;;;41.70;22.15;;;;;;;-146.25;100.00;52441.19;2078820;28;39024;-76
2023/02/13 03:59:17;;;;;;;39.97;23.30;;;;;;;-146.25;100.00;52506.06;2084490;28;37686;-76
2023/02/13 04:00:20;;;;;;;39.70;20.23;;;;;;;-146.25;100.00;52497.97;2087234;28;36645;-76
2023/02/13 04:01:32;;;;;;;43.55;24.23;;;;;;;-146.25;100.00;52477.69;2078722;28;36088;-76
2023/02/13 04:02:46;;;;;;;37.35;21.95;;;;;;;-146.25;100.00;52477.69;2074465;28;38815;-75
2023/02/13 04:04:20;;;;;;;44.15;24.35;;;;;;;-146.25;100.00;52469.56;2079300;28;20049;-75
2023/02/13 04:05:28;;;;;;;41.47;22.85;;;;;;;-146.25;100.00;52455.38;2083557;28;38684;-76
2023/02/13 04:07:04;;;;;;;44.13;24.05;;;;;;;-146.25;100.00;52461.47;2080883;28;20084;-75
2023/02/13 04:08:05;;;;;;;45.20;24.70;;;;;;;-146.25;100.00;52489.84;2086061;28;41162;-75
2023/02/13 04:09:07;;;;;;;39.55;23.20;;;;;;;-146.25;100.00;52497.97;2079974;28;38696;-76
2023/02/13 04:10:14;;;;;;;41.65;23.30;;;;;;;-146.25;100.00;52467.56;2080065;28;41208;-75
2023/02/13 04:11:35;;;;;;;38.33;22.52;;;;;;;-146.25;100.00;52445.25;2080132;28;36378;-76
2023/02/13 04:13:13;;;;;;;37.38;22.48;;;;;;;-146.25;100.00;52461.47;2084252;28;41505;-76
2023/02/13 04:14:26;;;;;;;38.03;22.40;;;;;;;-146.25;100.00;52522.28;2079803;28;44581;-76
2023/02/13 04:15:52;;;;;;;37.58;20.40;;;;;;;-146.25;100.00;52495.94;2078433;28;36129;-76
2023/02/13 04:17:04;;;;;;;39.03;21.85;;;;;;;-146.25;100.00;52469.56;2085026;28;42552;-76
2023/02/13 04:18:19;;;;;;;36.47;21.15;;;;;;;-146.25;100.00;52469.56;2089474;28;20073;-76
2023/02/13 04:19:24;;;;;;;39.63;23.25;;;;;;;-146.25;100.00;52506.06;2080183;28;40099;-75
2023/02/13 04:20:30;;;;;;;46.80;25.40;;;;;;;-146.25;100.00;52463.50;2064988;28;36528;-77
2023/02/13 04:21:39;;;;;;;38.47;23.10;;;;;;;-146.25;100.00;52491.88;2058035;28;25888;-75
2023/02/13 04:22:46;;;;;;;46.00;25.20;;;;;;;-146.25;100.00;52461.47;2074078;28;40828;-76
2023/02/13 04:23:48;;;;;;;49.95;26.52;;;;;;;-146.25;100.00;52502.03;2088703;28;39601;-76
2023/02/13 04:24:50;;;;;;;40.72;24.38;;;;;;;-146.25;100.00;52467.56;2088668;28;39555;-74
2023/02/13 04:25:54;;;;;;;43.47;25.98;;;;;;;-146.25;100.00;52469.56;2087746;28;41548;-76
2023/02/13 04:26:56;;;;;;;39.22;23.10;;;;;;;-146.25;100.00;52463.50;2088871;28;37443;-76
2023/02/13 04:27:58;;;;;;;44.28;24.75;;;;;;;-146.25;100.00;52493.91;2079465;28;41806;-76
2023/02/13 04:29:00;;;;;;;48.53;26.75;;;;;;;-146.25;100.00;52479.72;2080239;28;38804;-76
2023/02/13 04:30:05;;;;;;;48.58;26.67;;;;;;;-146.25;100.00;52457.41;2089322;28;38123;-76
2023/02/13 04:31:08;;;;;;;47.33;26.58;;;;;;;-146.25;100.00;52526.34;2088591;28;44273;-75
2023/02/13 04:32:10;;;;;;;39.78;23.90;;;;;;;-146.25;100.00;52487.81;2089138;28;20029;-76
2023/02/13 04:33:12;;;;;;;41.67;22.88;;;;;;;-146.25;100.00;52467.56;2080364;28;20899;-75
2023/02/13 04:34:14;;;;;;;40.92;23.98;;;;;;;-146.25;100.00;52487.81;2079526;28;40518;-75
2023/02/13 04:35:18;;;;;;;42.10;23.80;;;;;;;-146.25;100.00;52467.56;2096487;28;38262;-76
2023/02/13 04:36:20;;;;;;;35.83;23.45;;;;;;;-146.25;100.00;52497.97;2096985;28;42363;-76
2023/02/13 04:37:22;;;;;;;43.90;24.42;;;;;;;-146.25;100.00;52497.97;2098451;28;20106;-76
2023/02/13 04:38:23;;;;;;;45.55;25.40;;;;;;;-146.25;100.00;52459.44;2088001;28;30892;-76
2023/02/13 04:39:25;;;;;;;42.05;22.83;;;;;;;-146.25;100.00;52514.19;2088574;28;36530;-76
2023/02/13 04:40:27;;;;;;;41.97;25.02;;;;;;;-146.25;100.00;52485.81;2096928;28;36073;-76
2023/02/13 04:41:28;;;;;;;50.00;24.52;;;;;;;-146.25;100.00;52481.75;2096760;28;40986;-76
2023/02/13 04:42:30;;;;;;;39.97;23.00;;;;;;;-146.25;100.00;52483.78;2097602;28;20826;-76
2023/02/13 04:43:32;;;;;;;40.88;23.00;;;;;;;-146.25;100.00;52489.84;2097072;28;38129;-76
2023/02/13 04:44:36;;;;;;;39.10;21.95;;;;;;;-146.25;100.00;52467.56;2096688;28;40194;-76
2023/02/13 04:45:38;;;;;;;38.33;23.75;;;;;;;-146.25;100.00;52485.81;2097080;28;36878;-76
2023/02/13 04:46:39;;;;;;;38.22;22.65;;;;;;;-146.25;100.00;52502.03;2096721;28;40974;-76
2023/02/13 04:47:41;;;;;;;43.53;24.73;;;;;;;-146.25;100.00;52504.03;2096840;28;39615;-75
2023/02/13 04:48:43;;;;;;;41.60;24.48;;;;;;;-146.25;100.00;52467.56;2087707;28;39604;-76
2023/02/13 04:49:45;;;;;;;39.75;21.30;;;;;;;-146.25;100.00;52493.91;2079754;28;42522;-76
2023/02/13 04:50:46;;;;;;;37.35;22.38;;;;;;;-146.25;100.00;52524.31;2088400;28;34196;-76
2023/02/13 04:51:48;;;;;;;35.55;21.65;;;;;;;-146.25;100.00;52500.00;2096012;28;44069;-76
2023/02/13 04:52:55;;;;;;;43.88;24.92;;;;;;;-146.25;100.00;52506.06;2096213;28;41161;-76
2023/02/13 04:53:57;;;;;;;42.10;23.92;;;;;;;-146.25;100.00;52467.56;2097119;28;31816;-76
2023/02/13 04:54:59;;;;;;;35.22;21.30;;;;;;;-146.25;100.00;52495.94;2096473;28;44537;-75
2023/02/13 04:56:00;;;;;;;42.75;24.08;;;;;;;-146.25;100.00;52481.75;2088263;28;35215;-75
2023/02/13 04:57:04;;;;;;;44.78;24.45;;;;;;;-146.25;100.00;52487.81;2087994;28;37984;-75
2023/02/13 04:58:06;;;;;;;44.72;26.88;;;;;;;-146.25;100.00;52495.94;2096940;28;38957;-76
2023/02/13 04:59:08;;;;;;;44.50;24.70;;;;;;;-146.25;100.00;52491.88;2097222;28;37945;-75
2023/02/13 05:00:10;;;;;;;39.08;22.45;;;;;;;-146.25;100.00;52510.13;2087621;28;43684;-76
2023/02/13 05:01:14;;;;;;;40.40;24.60;;;;;;;-146.25;100.00;52475.66;2087990;28;36998;-75
2023/02/13 05:02:16;;;;;;;38.67;23.02;;;;;;;-146.25;100.00;52485.81;2097178;28;22188;-76
2023/02/13 05:03:18;;;;;;;39.58;22.88;;;;;;;-146.25;100.00;52437.13;2096797;28;38102;-75
2023/02/13 05:04:20;;;;;;;39.13;23.25;;;;;;;-146.25;100.00;52497.97;2096656;28;40120;-75
2023/02/13 05:05:23;;;;;;;43.83;25.23;;;;;;;-146.25;100.00;52495.94;2097425;28;20048;-75
2023/02/13 05:06:25;;;;;;;47.40;26.27;;;;;;;-146.25;100.00;52504.03;2096924;28;43275;-76
2023/02/13 05:07:27;;;;;;;39.38;22.27;;;;;;;-146.25;100.00;52514.19;2097336;28;25120;-75
2023/02/13 05:08:29;;;;;;;41.47;24.20;;;;;;;-146.25;100.00;52491.88;2096986;28;37014;-76
2023/02/13 05:09:33;;;;;;;45.58;25.65;;;;;;;-146.25;100.00;52481.75;2096893;28;40350;-76
2023/02/13 05:10:35;;;;;;;46.03;25.80;;;;;;;-146.25;100.00;52483.78;2087530;28;38447;-76
2023/02/13 05:11:37;;;;;;;42.80;24.10;;;;;;;-146.25;100.00;52483.78;2088769;28;20037;-76
2023/02/13 05:12:41;;;;;;;43.85;26.25;;;;;;;-146.25;100.00;52485.81;2087517;28;40593;-76
2023/02/13 05:13:43;;;;;;;47.67;26.88;;;;;;;-146.25;100.00;52489.84;2088035;28;39399;-75
2023/02/13 05:14:44;;;;;;;49.70;26.80;;;;;;;-146.25;100.00;52485.81;2096626;28;38054;-76
2023/02/13 05:15:48;;;;;;;44.13;24.95;;;;;;;-146.25;100.00;52457.41;2096649;28;39660;-75
2023/02/13 05:16:49;;;;;;;43.90;25.15;;;;;;;-146.25;100.00;52461.47;2096907;28;38884;-76
2023/02/13 05:17:51;;;;;;;46.45;26.48;;;;;;;-146.25;100.00;52447.28;2095643;28;32666;-76
2023/02/13 05:18:53;;;;;;;43.90;24.50;;;;;;;-146.25;100.00;52483.78;2097454;28;20041;-75
2023/02/13 05:19:55;;;;;;;45.72;27.40;;;;;;;-146.25;100.00;52495.94;2096629;28;37456;-76
2023/02/13 05:23:37;;;;;;;42.65;24.88;;;;;;;-146.25;100.00;52487.81;2088065;28;36353;-75
2023/02/13 05:24:39;;;;;;;44.42;25.17;;;;;;;-146.25;100.00;52465.53;2090567;28;39496;-75
2023/02/13 05:25:41;;;;;;;42.35;24.85;;;;;;;-146.25;100.00;52485.81;2097034;28;38372;-76
2023/02/13 05:26:43;;;;;;;43.53;26.45;;;;;;;-146.25;100.00;52483.78;2096731;28;39936;-76
2023/02/13 05:27:45;;;;;;;43.28;25.17;;;;;;;-146.25;100.00;52514.19;2097312;28;20775;-75
2023/02/13 05:30:07;;;;;;;43.05;25.17;;;;;;;-146.25;100.00;52485.81;2096721;28;38872;-75
2023/02/13 05:31:09;;;;;;;45.83;26.00;;;;;;;-146.25;100.00;52481.75;2096518;28;38043;-76
2023/02/13 05:32:11;;;;;;;39.33;23.17;;;;;;;-146.25;100.00;52502.03;2096966;28;33687;-75
2023/02/13 05:33:15;;;;;;;46.28;24.40;;;;;;;-146.25;100.00;52463.50;2096852;28;22068;-75
2023/02/13 05:34:17;;;;;;;45.75;25.77;;;;;;;-146.25;100.00;52473.63;2096749;28;38727;-75
2023/02/13 05:35:18;;;;;;;41.58;24.17;;;;;;;-146.25;100.00;52473.63;2096344;28;37599;-76
2023/02/13 05:36:20;;;;;;;42.42;25.33;;;;;;;-146.25;100.00;52483.78;2096595;28;36065;-76
2023/02/13 05:37:22;;;;;;;48.95;28.23;;;;;;;-146.25;100.00;52493.91;2087569;28;39693;-76
2023/02/13 05:38:24;;;;;;;46.03;25.63;;;;;;;-146.25;100.00;52489.84;2087629;28;37581;-75